sensor_id;sensor_type;location;lat;lon;timestamp;temperature;humidity
3660;DHT22;1846;51.482;7.224;2023-04-20T00:06:09;8.90;1.00
3660;DHT22;1846;51.482;7.224;2023-04-20T00:11:46;9.00;1.00
3660;DHT22;1846;51.482;7.224;2023-04-20T00:14:13;8.90;1.00
3660;DHT22;1846;51.482;7.224;2023-04-20T00:16:41;8.90;1.00
3660;DHT22;1846;51.482;7.224;2023-04-20T00:19:09;8.90;1.00
3660;DHT22;1846;51.482;7.224;2023-04-20T00:21:36;8.80;1.00
3660;DHT22;1846;51.482;7.224;2023-04-20T00:24:04;8.80;1.00
3660;DHT22;1846;51.482;7.224;2023-04-20T00:33:03;8.70;1.00
3660;DHT22;1846;51.482;7.224;2023-04-20T00:35:36;8.60;1.00
3660;DHT22;1846;51.482;7.224;2023-04-20T00:47:15;8.60;1.00
3660;DHT22;1846;51.482;7.224;2023-04-20T00:49:43;8.60;1.00
3660;DHT22;1846;51.482;7.224;2023-04-20T00:52:10;8.50;1.00
3660;DHT22;1846;51.482;7.224;2023-04-20T00:54:38;8.40;1.00
3660;DHT22;1846;51.482;7.224;2023-04-20T00:57:05;8.40;1.00
3660;DHT22;1846;51.482;7.224;2023-04-20T00:59:32;8.40;1.00
3660;DHT22;1846;51.482;7.224;2023-04-20T01:01:58;8.40;1.00
3660;DHT22;1846;51.482;7.224;2023-04-20T01:04:25;8.40;1.00
3660;DHT22;1846;51.482;7.224;2023-04-20T01:06:54;8.50;1.00
3660;DHT22;1846;51.482;7.224;2023-04-20T01:09:21;8.50;1.00
3660;DHT22;1846;51.482;7.224;2023-04-20T01:11:48;8.40;1.00
3660;DHT22;1846;51.482;7.224;2023-04-20T01:14:15;8.30;1.00
3660;DHT22;1846;51.482;7.224;2023-04-20T01:16:42;8.40;1.00
3660;DHT22;1846;51.482;7.224;2023-04-20T01:19:12;8.40;1.00
3660;DHT22;1846;51.482;7.224;2023-04-20T01:21:39;8.40;1.00
3660;DHT22;1846;51.482;7.224;2023-04-20T01:24:09;8.30;1.00
3660;DHT22;1846;51.482;7.224;2023-04-20T01:26:35;8.30;1.00
3660;DHT22;1846;51.482;7.224;2023-04-20T01:29:02;8.20;1.00
3660;DHT22;1846;51.482;7.224;2023-04-20T01:31:30;8.20;1.00
3660;DHT22;1846;51.482;7.224;2023-04-20T01:33:56;8.10;1.00
3660;DHT22;1846;51.482;7.224;2023-04-20T01:36:23;8.00;1.00
3660;DHT22;1846;51.482;7.224;2023-04-20T01:38:50;8.10;1.00
3660;DHT22;1846;51.482;7.224;2023-04-20T01:41:18;8.10;1.00
3660;DHT22;1846;51.482;7.224;2023-04-20T01:43:45;8.30;1.00
3660;DHT22;1846;51.482;7.224;2023-04-20T01:46:12;8.40;1.00
3660;DHT22;1846;51.482;7.224;2023-04-20T01:48:39;8.50;1.00
3660;DHT22;1846;51.482;7.224;2023-04-20T01:51:06;8.60;1.00
3660;DHT22;1846;51.482;7.224;2023-04-20T01:53:34;8.60;1.00
3660;DHT22;1846;51.482;7.224;2023-04-20T01:56:01;8.50;1.00
3660;DHT22;1846;51.482;7.224;2023-04-20T01:58:29;8.40;1.00
3660;DHT22;1846;51.482;7.224;2023-04-20T02:00:56;8.40;1.00
3660;DHT22;1846;51.482;7.224;2023-04-20T02:03:23;8.40;1.00
3660;DHT22;1846;51.482;7.224;2023-04-20T02:05:50;8.30;1.00
3660;DHT22;1846;51.482;7.224;2023-04-20T02:08:16;8.40;1.00
3660;DHT22;1846;51.482;7.224;2023-04-20T02:10:43;8.40;1.00
3660;DHT22;1846;51.482;7.224;2023-04-20T02:13:10;8.40;1.00
3660;DHT22;1846;51.482;7.224;2023-04-20T02:15:38;8.40;1.00
3660;DHT22;1846;51.482;7.224;2023-04-20T02:18:05;8.50;1.00
3660;DHT22;1846;51.482;7.224;2023-04-20T02:20:33;8.60;1.00
3660;DHT22;1846;51.482;7.224;2023-04-20T02:23:00;8.60;1.00
3660;DHT22;1846;51.482;7.224;2023-04-20T02:25:27;8.70;1.00
3660;DHT22;1846;51.482;7.224;2023-04-20T02:27:54;8.60;1.00
3660;DHT22;1846;51.482;7.224;2023-04-20T02:30:21;8.60;1.00
3660;DHT22;1846;51.482;7.224;2023-04-20T02:32:49;8.70;1.00
3660;DHT22;1846;51.482;7.224;2023-04-20T02:35:16;8.70;1.00
3660;DHT22;1846;51.482;7.224;2023-04-20T02:37:44;8.60;1.00
3660;DHT22;1846;51.482;7.224;2023-04-20T02:40:11;8.40;1.00
3660;DHT22;1846;51.482;7.224;2023-04-20T02:42:38;8.50;1.00
3660;DHT22;1846;51.482;7.224;2023-04-20T02:45:06;8.40;1.00
3660;DHT22;1846;51.482;7.224;2023-04-20T02:47:33;8.50;1.00
3660;DHT22;1846;51.482;7.224;2023-04-20T02:50:01;8.40;2.20
3660;DHT22;1846;51.482;7.224;2023-04-20T02:52:28;8.40;4.60
3660;DHT22;1846;51.482;7.224;2023-04-20T02:54:55;8.30;7.30
3660;DHT22;1846;51.482;7.224;2023-04-20T02:57:22;8.10;9.50
3660;DHT22;1846;51.482;7.224;2023-04-20T02:59:49;8.20;10.80
3660;DHT22;1846;51.482;7.224;2023-04-20T03:02:16;8.10;14.70
3660;DHT22;1846;51.482;7.224;2023-04-20T03:04:43;8.10;18.20
3660;DHT22;1846;51.482;7.224;2023-04-20T03:07:11;8.20;17.90
3660;DHT22;1846;51.482;7.224;2023-04-20T03:09:38;8.20;18.40
3660;DHT22;1846;51.482;7.224;2023-04-20T03:12:05;8.40;22.90
3660;DHT22;1846;51.482;7.224;2023-04-20T03:14:32;8.50;24.50
3660;DHT22;1846;51.482;7.224;2023-04-20T03:16:59;8.50;24.20
3660;DHT22;1846;51.482;7.224;2023-04-20T03:19:26;8.40;29.90
3660;DHT22;1846;51.482;7.224;2023-04-20T03:21:53;8.40;34.80
3660;DHT22;1846;51.482;7.224;2023-04-20T03:24:21;8.40;45.00
3660;DHT22;1846;51.482;7.224;2023-04-20T03:26:48;8.40;46.60
3660;DHT22;1846;51.482;7.224;2023-04-20T03:29:15;8.40;57.90
3660;DHT22;1846;51.482;7.224;2023-04-20T03:31:42;8.40;72.10
3660;DHT22;1846;51.482;7.224;2023-04-20T03:34:09;8.40;76.90
3660;DHT22;1846;51.482;7.224;2023-04-20T03:36:36;8.40;94.00
3660;DHT22;1846;51.482;7.224;2023-04-20T03:39:03;8.30;99.90
3660;DHT22;1846;51.482;7.224;2023-04-20T03:41:31;8.30;99.90
3660;DHT22;1846;51.482;7.224;2023-04-20T03:43:58;8.30;99.90
3660;DHT22;1846;51.482;7.224;2023-04-20T03:46:25;8.30;99.90
3660;DHT22;1846;51.482;7.224;2023-04-20T03:48:52;8.20;99.90
3660;DHT22;1846;51.482;7.224;2023-04-20T03:51:19;8.10;99.90
3660;DHT22;1846;51.482;7.224;2023-04-20T03:53:46;8.10;99.90
3660;DHT22;1846;51.482;7.224;2023-04-20T03:56:12;8.10;99.90
3660;DHT22;1846;51.482;7.224;2023-04-20T03:58:41;8.20;99.90
3660;DHT22;1846;51.482;7.224;2023-04-20T04:01:08;8.10;99.90
3660;DHT22;1846;51.482;7.224;2023-04-20T04:03:37;8.20;99.90
3660;DHT22;1846;51.482;7.224;2023-04-20T04:06:04;8.20;99.90
3660;DHT22;1846;51.482;7.224;2023-04-20T04:08:31;8.30;99.90
3660;DHT22;1846;51.482;7.224;2023-04-20T04:10:58;8.30;99.90
3660;DHT22;1846;51.482;7.224;2023-04-20T04:13:25;8.20;99.90
3660;DHT22;1846;51.482;7.224;2023-04-20T04:15:54;8.10;99.90
3660;DHT22;1846;51.482;7.224;2023-04-20T04:18:21;8.00;99.90
3660;DHT22;1846;51.482;7.224;2023-04-20T04:20:48;8.10;99.90
3660;DHT22;1846;51.482;7.224;2023-04-20T04:23:15;8.10;99.90
3660;DHT22;1846;51.482;7.224;2023-04-20T04:25:42;8.20;99.90
3660;DHT22;1846;51.482;7.224;2023-04-20T04:28:09;8.10;99.90
3660;DHT22;1846;51.482;7.224;2023-04-20T04:30:36;8.10;99.90
3660;DHT22;1846;51.482;7.224;2023-04-20T04:33:04;8.10;99.90
3660;DHT22;1846;51.482;7.224;2023-04-20T04:35:32;8.10;99.90
3660;DHT22;1846;51.482;7.224;2023-04-20T04:37:59;8.30;99.90
3660;DHT22;1846;51.482;7.224;2023-04-20T04:40:26;8.20;99.90
3660;DHT22;1846;51.482;7.224;2023-04-20T04:42:53;8.00;99.90
3660;DHT22;1846;51.482;7.224;2023-04-20T04:45:20;8.10;99.90
3660;DHT22;1846;51.482;7.224;2023-04-20T04:47:49;8.00;99.90
3660;DHT22;1846;51.482;7.224;2023-04-20T04:50:19;8.10;99.90
3660;DHT22;1846;51.482;7.224;2023-04-20T04:52:46;8.00;99.90
3660;DHT22;1846;51.482;7.224;2023-04-20T04:55:13;7.90;99.90
3660;DHT22;1846;51.482;7.224;2023-04-20T04:57:40;7.80;99.90
3660;DHT22;1846;51.482;7.224;2023-04-20T05:00:08;7.80;99.90
3660;DHT22;1846;51.482;7.224;2023-04-20T05:02:36;7.90;99.90
3660;DHT22;1846;51.482;7.224;2023-04-20T05:05:04;8.00;99.90
3660;DHT22;1846;51.482;7.224;2023-04-20T05:07:32;7.90;99.90
3660;DHT22;1846;51.482;7.224;2023-04-20T05:09:59;7.90;99.90
3660;DHT22;1846;51.482;7.224;2023-04-20T05:12:26;7.90;99.90
3660;DHT22;1846;51.482;7.224;2023-04-20T05:14:53;7.80;99.90
3660;DHT22;1846;51.482;7.224;2023-04-20T05:17:20;7.90;99.90
3660;DHT22;1846;51.482;7.224;2023-04-20T05:19:50;7.90;99.90
3660;DHT22;1846;51.482;7.224;2023-04-20T05:22:17;8.20;99.90
3660;DHT22;1846;51.482;7.224;2023-04-20T05:33:51;8.10;99.90
3660;DHT22;1846;51.482;7.224;2023-04-20T05:36:20;8.20;99.90
3660;DHT22;1846;51.482;7.224;2023-04-20T05:44:04;8.30;99.90
3660;DHT22;1846;51.482;7.224;2023-04-20T05:46:31;8.20;99.90
3660;DHT22;1846;51.482;7.224;2023-04-20T05:49:00;8.00;99.90
3660;DHT22;1846;51.482;7.224;2023-04-20T05:56:57;7.70;1.00
3660;DHT22;1846;51.482;7.224;2023-04-20T05:59:33;7.50;1.00
3660;DHT22;1846;51.482;7.224;2023-04-20T06:02:08;7.40;33.70
3660;DHT22;1846;51.482;7.224;2023-04-20T06:15:13;7.00;99.90
3660;DHT22;1846;51.482;7.224;2023-04-20T06:23:03;7.00;99.90
3660;DHT22;1846;51.482;7.224;2023-04-20T06:32:06;6.70;99.90
3660;DHT22;1846;51.482;7.224;2023-04-20T06:34:39;6.80;83.50
3660;DHT22;1846;51.482;7.224;2023-04-20T06:46:11;6.70;44.70
3660;DHT22;1846;51.482;7.224;2023-04-20T06:48:49;6.60;53.50
3660;DHT22;1846;51.482;7.224;2023-04-20T07:01:34;6.60;99.90
3660;DHT22;1846;51.482;7.224;2023-04-20T07:28:28;7.20;1.00
3660;DHT22;1846;51.482;7.224;2023-04-20T07:30:55;7.10;99.90
3660;DHT22;1846;51.482;7.224;2023-04-20T07:33:24;7.20;99.90
3660;DHT22;1846;51.482;7.224;2023-04-20T07:35:57;7.30;99.90
3660;DHT22;1846;51.482;7.224;2023-04-20T07:38:30;7.30;1.00
3660;DHT22;1846;51.482;7.224;2023-04-20T07:41:24;7.40;99.90
3660;DHT22;1846;51.482;7.224;2023-04-20T07:44:21;7.70;1.00
3660;DHT22;1846;51.482;7.224;2023-04-20T07:46:53;7.70;99.90
3660;DHT22;1846;51.482;7.224;2023-04-20T07:52:03;7.50;9.50
3660;DHT22;1846;51.482;7.224;2023-04-20T07:57:39;7.50;99.90
3660;DHT22;1846;51.482;7.224;2023-04-20T08:14:08;7.50;99.90
3660;DHT22;1846;51.482;7.224;2023-04-20T08:22:56;7.60;1.00
3660;DHT22;1846;51.482;7.224;2023-04-20T08:30:59;7.80;99.90
3660;DHT22;1846;51.482;7.224;2023-04-20T08:33:38;8.00;91.80
3660;DHT22;1846;51.482;7.224;2023-04-20T08:36:16;8.00;1.00
3660;DHT22;1846;51.482;7.224;2023-04-20T08:42:08;8.10;1.00
3660;DHT22;1846;51.482;7.224;2023-04-20T08:44:36;7.80;1.00
3660;DHT22;1846;51.482;7.224;2023-04-20T09:24:31;8.50;99.90
3660;DHT22;1846;51.482;7.224;2023-04-20T09:37:27;8.40;1.00
3660;DHT22;1846;51.482;7.224;2023-04-20T09:43:59;8.60;99.90
3660;DHT22;1846;51.482;7.224;2023-04-20T09:59:52;8.60;1.00
3660;DHT22;1846;51.482;7.224;2023-04-20T10:02:22;8.60;99.90
3660;DHT22;1846;51.482;7.224;2023-04-20T10:10:08;8.10;1.00
3660;DHT22;1846;51.482;7.224;2023-04-20T10:12:53;8.20;99.90
3660;DHT22;1846;51.482;7.224;2023-04-20T10:15:22;8.60;65.80
3660;DHT22;1846;51.482;7.224;2023-04-20T10:17:52;9.00;99.90
3660;DHT22;1846;51.482;7.224;2023-04-20T10:20:21;9.70;99.90
3660;DHT22;1846;51.482;7.224;2023-04-20T10:25:24;10.80;1.00
3660;DHT22;1846;51.482;7.224;2023-04-20T10:28:02;10.90;1.00
3660;DHT22;1846;51.482;7.224;2023-04-20T10:30:35;10.80;1.00
3660;DHT22;1846;51.482;7.224;2023-04-20T10:36:05;10.30;1.00
3660;DHT22;1846;51.482;7.224;2023-04-20T10:38:33;10.00;1.00
3660;DHT22;1846;51.482;7.224;2023-04-20T10:41:08;9.80;1.00
3660;DHT22;1846;51.482;7.224;2023-04-20T10:43:35;9.60;1.00
3660;DHT22;1846;51.482;7.224;2023-04-20T10:56:16;10.50;1.00
3660;DHT22;1846;51.482;7.224;2023-04-20T11:03:51;11.60;99.90
3660;DHT22;1846;51.482;7.224;2023-04-20T11:08:43;11.20;99.90
3660;DHT22;1846;51.482;7.224;2023-04-20T11:14:56;10.80;99.90
3660;DHT22;1846;51.482;7.224;2023-04-20T11:20:13;10.60;99.90
3660;DHT22;1846;51.482;7.224;2023-04-20T11:25:21;11.60;99.90
3660;DHT22;1846;51.482;7.224;2023-04-20T11:31:43;13.70;99.90
3660;DHT22;1846;51.482;7.224;2023-04-20T11:35:22;13.70;90.70
3660;DHT22;1846;51.482;7.224;2023-04-20T11:49:55;11.40;99.90
3660;DHT22;1846;51.482;7.224;2023-04-20T11:52:29;11.90;99.90
3660;DHT22;1846;51.482;7.224;2023-04-20T11:58:09;12.80;94.90
3660;DHT22;1846;51.482;7.224;2023-04-20T12:00:36;12.40;91.10
3660;DHT22;1846;51.482;7.224;2023-04-20T12:03:08;12.30;92.20
3660;DHT22;1846;51.482;7.224;2023-04-20T12:05:50;12.20;99.90
3660;DHT22;1846;51.482;7.224;2023-04-20T12:08:17;12.50;93.80
3660;DHT22;1846;51.482;7.224;2023-04-20T12:10:55;12.40;91.00
3660;DHT22;1846;51.482;7.224;2023-04-20T12:13:21;12.20;91.40
3660;DHT22;1846;51.482;7.224;2023-04-20T12:15:48;12.30;95.30
3660;DHT22;1846;51.482;7.224;2023-04-20T12:18:18;12.90;91.10
3660;DHT22;1846;51.482;7.224;2023-04-20T12:23:48;14.90;67.50
3660;DHT22;1846;51.482;7.224;2023-04-20T12:26:57;15.40;54.40
3660;DHT22;1846;51.482;7.224;2023-04-20T12:30:09;15.50;42.80
3660;DHT22;1846;51.482;7.224;2023-04-20T12:35:55;14.70;35.50
3660;DHT22;1846;51.482;7.224;2023-04-20T12:38:23;14.40;35.50
3660;DHT22;1846;51.482;7.224;2023-04-20T12:40:50;13.90;35.00
3660;DHT22;1846;51.482;7.224;2023-04-20T12:43:17;14.10;35.60
3660;DHT22;1846;51.482;7.224;2023-04-20T12:45:44;14.70;36.40
3660;DHT22;1846;51.482;7.224;2023-04-20T12:48:12;15.10;36.60
3660;DHT22;1846;51.482;7.224;2023-04-20T12:50:40;15.20;37.00
3660;DHT22;1846;51.482;7.224;2023-04-20T12:53:07;15.00;35.50
3660;DHT22;1846;51.482;7.224;2023-04-20T12:55:35;15.00;33.10
3660;DHT22;1846;51.482;7.224;2023-04-20T12:58:13;14.90;33.20
3660;DHT22;1846;51.482;7.224;2023-04-20T13:00:40;15.20;34.60
3660;DHT22;1846;51.482;7.224;2023-04-20T13:03:07;15.10;29.10
3660;DHT22;1846;51.482;7.224;2023-04-20T13:05:34;14.40;24.40
3660;DHT22;1846;51.482;7.224;2023-04-20T13:08:01;13.80;22.60
3660;DHT22;1846;51.482;7.224;2023-04-20T13:10:28;13.60;24.20
3660;DHT22;1846;51.482;7.224;2023-04-20T13:12:57;13.20;26.90
3660;DHT22;1846;51.482;7.224;2023-04-20T13:15:26;13.10;33.10
3660;DHT22;1846;51.482;7.224;2023-04-20T13:17:54;13.10;36.90
3660;DHT22;1846;51.482;7.224;2023-04-20T13:20:20;13.00;37.50
3660;DHT22;1846;51.482;7.224;2023-04-20T13:22:55;13.10;36.90
3660;DHT22;1846;51.482;7.224;2023-04-20T13:25:23;13.20;38.70
3660;DHT22;1846;51.482;7.224;2023-04-20T13:27:51;13.70;39.70
3660;DHT22;1846;51.482;7.224;2023-04-20T13:30:20;13.80;35.60
3660;DHT22;1846;51.482;7.224;2023-04-20T13:32:47;13.80;31.80
3660;DHT22;1846;51.482;7.224;2023-04-20T13:35:15;13.50;27.70
3660;DHT22;1846;51.482;7.224;2023-04-20T13:37:43;13.10;26.10
3660;DHT22;1846;51.482;7.224;2023-04-20T13:40:10;12.70;27.30
3660;DHT22;1846;51.482;7.224;2023-04-20T13:42:38;12.40;31.40
3660;DHT22;1846;51.482;7.224;2023-04-20T13:45:05;12.40;39.90
3660;DHT22;1846;51.482;7.224;2023-04-20T13:47:35;12.60;42.30
3660;DHT22;1846;51.482;7.224;2023-04-20T13:50:02;12.50;44.20
3660;DHT22;1846;51.482;7.224;2023-04-20T13:52:29;12.30;44.70
3660;DHT22;1846;51.482;7.224;2023-04-20T13:54:56;12.30;46.80
3660;DHT22;1846;51.482;7.224;2023-04-20T13:57:23;12.70;47.40
3660;DHT22;1846;51.482;7.224;2023-04-20T13:59:50;13.00;45.50
3660;DHT22;1846;51.482;7.224;2023-04-20T14:02:17;13.40;42.20
3660;DHT22;1846;51.482;7.224;2023-04-20T14:04:45;13.50;37.10
3660;DHT22;1846;51.482;7.224;2023-04-20T14:07:12;13.90;35.70
3660;DHT22;1846;51.482;7.224;2023-04-20T14:09:39;14.40;36.70
3660;DHT22;1846;51.482;7.224;2023-04-20T14:12:08;14.70;31.30
3660;DHT22;1846;51.482;7.224;2023-04-20T14:14:36;15.00;32.40
3660;DHT22;1846;51.482;7.224;2023-04-20T14:17:02;15.20;25.70
3660;DHT22;1846;51.482;7.224;2023-04-20T14:19:29;14.80;23.80
3660;DHT22;1846;51.482;7.224;2023-04-20T14:22:14;14.30;22.90
3660;DHT22;1846;51.482;7.224;2023-04-20T14:24:44;13.90;23.40
3660;DHT22;1846;51.482;7.224;2023-04-20T14:27:12;13.50;20.30
3660;DHT22;1846;51.482;7.224;2023-04-20T14:29:39;13.40;20.60
3660;DHT22;1846;51.482;7.224;2023-04-20T14:32:06;13.20;19.60
3660;DHT22;1846;51.482;7.224;2023-04-20T14:34:33;13.30;20.50
3660;DHT22;1846;51.482;7.224;2023-04-20T14:37:00;13.30;20.00
3660;DHT22;1846;51.482;7.224;2023-04-20T14:39:28;13.30;19.80
3660;DHT22;1846;51.482;7.224;2023-04-20T14:41:55;13.20;17.90
3660;DHT22;1846;51.482;7.224;2023-04-20T14:44:22;13.10;17.10
3660;DHT22;1846;51.482;7.224;2023-04-20T14:46:49;13.10;19.10
3660;DHT22;1846;51.482;7.224;2023-04-20T14:49:16;13.50;22.80
3660;DHT22;1846;51.482;7.224;2023-04-20T14:51:42;14.10;26.00
3660;DHT22;1846;51.482;7.224;2023-04-20T14:54:09;14.50;24.20
3660;DHT22;1846;51.482;7.224;2023-04-20T14:56:38;14.10;19.20
3660;DHT22;1846;51.482;7.224;2023-04-20T14:59:05;13.80;17.00
3660;DHT22;1846;51.482;7.224;2023-04-20T15:01:32;13.60;14.90
3660;DHT22;1846;51.482;7.224;2023-04-20T15:03:59;13.60;15.20
3660;DHT22;1846;51.482;7.224;2023-04-20T15:06:26;13.60;15.10
3660;DHT22;1846;51.482;7.224;2023-04-20T15:08:52;14.00;17.60
3660;DHT22;1846;51.482;7.224;2023-04-20T15:11:20;14.20;17.90
3660;DHT22;1846;51.482;7.224;2023-04-20T15:13:48;14.10;18.20
3660;DHT22;1846;51.482;7.224;2023-04-20T15:16:16;14.20;18.20
3660;DHT22;1846;51.482;7.224;2023-04-20T15:18:43;14.60;19.00
3660;DHT22;1846;51.482;7.224;2023-04-20T15:21:10;14.50;16.10
3660;DHT22;1846;51.482;7.224;2023-04-20T15:23:37;14.40;15.00
3660;DHT22;1846;51.482;7.224;2023-04-20T15:26:05;14.50;14.90
3660;DHT22;1846;51.482;7.224;2023-04-20T15:28:32;14.40;15.10
3660;DHT22;1846;51.482;7.224;2023-04-20T15:31:00;14.50;15.10
3660;DHT22;1846;51.482;7.224;2023-04-20T15:33:27;14.40;15.20
3660;DHT22;1846;51.482;7.224;2023-04-20T15:35:54;14.50;15.30
3660;DHT22;1846;51.482;7.224;2023-04-20T15:38:21;14.40;15.30
3660;DHT22;1846;51.482;7.224;2023-04-20T15:43:24;13.70;10.10
3660;DHT22;1846;51.482;7.224;2023-04-20T15:45:51;13.40;9.70
3660;DHT22;1846;51.482;7.224;2023-04-20T15:48:19;13.40;10.10
3660;DHT22;1846;51.482;7.224;2023-04-20T15:50:49;13.30;10.30
3660;DHT22;1846;51.482;7.224;2023-04-20T15:53:17;13.20;9.60
3660;DHT22;1846;51.482;7.224;2023-04-20T15:55:44;13.10;9.20
3660;DHT22;1846;51.482;7.224;2023-04-20T16:01:01;13.20;10.30
3660;DHT22;1846;51.482;7.224;2023-04-20T16:03:30;13.50;12.00
3660;DHT22;1846;51.482;7.224;2023-04-20T16:05:57;13.50;12.50
3660;DHT22;1846;51.482;7.224;2023-04-20T16:11:04;13.50;16.00
3660;DHT22;1846;51.482;7.224;2023-04-20T16:13:31;13.30;16.20
3660;DHT22;1846;51.482;7.224;2023-04-20T16:15:58;13.20;16.50
3660;DHT22;1846;51.482;7.224;2023-04-20T16:18:25;13.00;16.30
3660;DHT22;1846;51.482;7.224;2023-04-20T16:20:53;13.00;16.90
3660;DHT22;1846;51.482;7.224;2023-04-20T16:23:20;12.80;20.40
3660;DHT22;1846;51.482;7.224;2023-04-20T16:25:47;12.90;20.80
3660;DHT22;1846;51.482;7.224;2023-04-20T16:28:14;12.90;21.50
3660;DHT22;1846;51.482;7.224;2023-04-20T16:30:41;12.80;21.00
3660;DHT22;1846;51.482;7.224;2023-04-20T16:33:09;12.80;23.00
3660;DHT22;1846;51.482;7.224;2023-04-20T16:35:35;13.00;25.00
3660;DHT22;1846;51.482;7.224;2023-04-20T16:38:04;12.90;26.50
3660;DHT22;1846;51.482;7.224;2023-04-20T16:40:30;12.90;24.60
3660;DHT22;1846;51.482;7.224;2023-04-20T16:42:57;13.00;31.70
3660;DHT22;1846;51.482;7.224;2023-04-20T16:45:26;12.80;23.50
3660;DHT22;1846;51.482;7.224;2023-04-20T16:47:53;12.70;21.10
3660;DHT22;1846;51.482;7.224;2023-04-20T16:50:20;12.50;22.00
3660;DHT22;1846;51.482;7.224;2023-04-20T16:52:48;12.50;24.20
3660;DHT22;1846;51.482;7.224;2023-04-20T16:55:17;12.20;26.40
3660;DHT22;1846;51.482;7.224;2023-04-20T16:57:43;12.10;29.20
3660;DHT22;1846;51.482;7.224;2023-04-20T17:00:11;12.00;31.60
3660;DHT22;1846;51.482;7.224;2023-04-20T17:02:38;11.90;35.10
3660;DHT22;1846;51.482;7.224;2023-04-20T17:05:06;11.80;42.50
3660;DHT22;1846;51.482;7.224;2023-04-20T17:07:33;11.70;42.00
3660;DHT22;1846;51.482;7.224;2023-04-20T17:10:01;11.70;51.70
3660;DHT22;1846;51.482;7.224;2023-04-20T17:12:30;11.60;52.60
3660;DHT22;1846;51.482;7.224;2023-04-20T17:14:57;11.30;52.20
3660;DHT22;1846;51.482;7.224;2023-04-20T17:17:25;11.30;63.70
3660;DHT22;1846;51.482;7.224;2023-04-20T17:19:52;11.10;73.30
3660;DHT22;1846;51.482;7.224;2023-04-20T17:22:19;11.00;99.90
3660;DHT22;1846;51.482;7.224;2023-04-20T17:24:46;10.90;99.90
3660;DHT22;1846;51.482;7.224;2023-04-20T17:27:13;10.80;99.90
3660;DHT22;1846;51.482;7.224;2023-04-20T17:29:42;10.60;99.90
3660;DHT22;1846;51.482;7.224;2023-04-20T17:32:09;10.40;99.90
3660;DHT22;1846;51.482;7.224;2023-04-20T17:34:36;10.20;99.90
3660;DHT22;1846;51.482;7.224;2023-04-20T17:37:04;10.10;99.90
3660;DHT22;1846;51.482;7.224;2023-04-20T17:39:31;9.90;99.90
3660;DHT22;1846;51.482;7.224;2023-04-20T17:41:58;9.80;1.00
3660;DHT22;1846;51.482;7.224;2023-04-20T17:44:25;9.80;1.00
3660;DHT22;1846;51.482;7.224;2023-04-20T17:46:54;9.80;1.00
3660;DHT22;1846;51.482;7.224;2023-04-20T17:49:21;9.70;1.00
3660;DHT22;1846;51.482;7.224;2023-04-20T17:51:49;9.70;1.00
3660;DHT22;1846;51.482;7.224;2023-04-20T17:54:16;9.70;68.30
3660;DHT22;1846;51.482;7.224;2023-04-20T17:56:43;9.70;99.90
3660;DHT22;1846;51.482;7.224;2023-04-20T17:59:10;9.70;99.90
3660;DHT22;1846;51.482;7.224;2023-04-20T18:01:37;9.60;99.90
3660;DHT22;1846;51.482;7.224;2023-04-20T18:04:05;9.50;99.90
3660;DHT22;1846;51.482;7.224;2023-04-20T18:06:33;9.50;1.00
3660;DHT22;1846;51.482;7.224;2023-04-20T18:09:02;9.40;1.00
3660;DHT22;1846;51.482;7.224;2023-04-20T18:11:29;9.50;99.90
3660;DHT22;1846;51.482;7.224;2023-04-20T18:13:56;9.40;99.90
3660;DHT22;1846;51.482;7.224;2023-04-20T18:16:23;9.40;30.80
3660;DHT22;1846;51.482;7.224;2023-04-20T18:18:50;9.30;5.00
3660;DHT22;1846;51.482;7.224;2023-04-20T18:21:18;9.30;99.90
3660;DHT22;1846;51.482;7.224;2023-04-20T18:23:45;9.30;99.90
3660;DHT22;1846;51.482;7.224;2023-04-20T18:26:12;9.20;93.70
3660;DHT22;1846;51.482;7.224;2023-04-20T18:28:42;9.30;99.90
3660;DHT22;1846;51.482;7.224;2023-04-20T18:31:09;9.30;99.90
3660;DHT22;1846;51.482;7.224;2023-04-20T18:33:35;9.30;99.90
3660;DHT22;1846;51.482;7.224;2023-04-20T18:36:03;9.30;99.90
3660;DHT22;1846;51.482;7.224;2023-04-20T18:38:31;9.20;99.90
3660;DHT22;1846;51.482;7.224;2023-04-20T18:40:59;9.10;1.00
3660;DHT22;1846;51.482;7.224;2023-04-20T18:43:26;9.00;1.00
3660;DHT22;1846;51.482;7.224;2023-04-20T18:45:55;8.90;1.00
3660;DHT22;1846;51.482;7.224;2023-04-20T18:48:22;8.90;11.10
3660;DHT22;1846;51.482;7.224;2023-04-20T18:50:49;8.80;1.00
3660;DHT22;1846;51.482;7.224;2023-04-20T18:53:16;8.80;1.00
3660;DHT22;1846;51.482;7.224;2023-04-20T18:55:44;8.90;1.00
3660;DHT22;1846;51.482;7.224;2023-04-20T18:58:11;8.90;99.90
3660;DHT22;1846;51.482;7.224;2023-04-20T19:00:38;8.90;1.00
3660;DHT22;1846;51.482;7.224;2023-04-20T19:03:05;8.90;99.90
3660;DHT22;1846;51.482;7.224;2023-04-20T19:05:32;9.10;99.90
3660;DHT22;1846;51.482;7.224;2023-04-20T19:07:59;9.10;2.60
3660;DHT22;1846;51.482;7.224;2023-04-20T19:10:25;9.10;99.90
3660;DHT22;1846;51.482;7.224;2023-04-20T19:12:54;9.00;1.00
3660;DHT22;1846;51.482;7.224;2023-04-20T19:15:21;8.90;1.00
3660;DHT22;1846;51.482;7.224;2023-04-20T19:17:50;8.90;1.00
3660;DHT22;1846;51.482;7.224;2023-04-20T19:20:17;8.90;99.90
3660;DHT22;1846;51.482;7.224;2023-04-20T19:22:44;8.80;99.90
3660;DHT22;1846;51.482;7.224;2023-04-20T19:25:11;8.80;1.00
3660;DHT22;1846;51.482;7.224;2023-04-20T19:27:38;8.80;99.90
3660;DHT22;1846;51.482;7.224;2023-04-20T19:30:08;8.80;72.10
3660;DHT22;1846;51.482;7.224;2023-04-20T19:32:34;8.90;1.00
3660;DHT22;1846;51.482;7.224;2023-04-20T19:35:02;8.90;99.90
3660;DHT22;1846;51.482;7.224;2023-04-20T19:37:29;8.90;1.00
3660;DHT22;1846;51.482;7.224;2023-04-20T19:40:00;9.00;17.30
3660;DHT22;1846;51.482;7.224;2023-04-20T19:42:30;9.10;17.70
3660;DHT22;1846;51.482;7.224;2023-04-20T19:44:57;9.00;99.90
3660;DHT22;1846;51.482;7.224;2023-04-20T19:47:25;9.10;99.90
3660;DHT22;1846;51.482;7.224;2023-04-20T19:49:52;9.10;1.00
3660;DHT22;1846;51.482;7.224;2023-04-20T19:52:20;9.20;1.00
3660;DHT22;1846;51.482;7.224;2023-04-20T19:54:47;9.30;1.00
3660;DHT22;1846;51.482;7.224;2023-04-20T19:57:14;9.30;99.90
3660;DHT22;1846;51.482;7.224;2023-04-20T19:59:41;9.30;99.90
3660;DHT22;1846;51.482;7.224;2023-04-20T20:02:08;9.30;94.00
3660;DHT22;1846;51.482;7.224;2023-04-20T20:04:36;9.30;99.90
3660;DHT22;1846;51.482;7.224;2023-04-20T20:07:03;9.20;99.90
3660;DHT22;1846;51.482;7.224;2023-04-20T20:09:30;9.30;99.90
3660;DHT22;1846;51.482;7.224;2023-04-20T20:11:57;9.30;99.90
3660;DHT22;1846;51.482;7.224;2023-04-20T20:14:25;9.30;99.90
3660;DHT22;1846;51.482;7.224;2023-04-20T20:16:52;9.30;99.90
3660;DHT22;1846;51.482;7.224;2023-04-20T20:19:21;9.20;99.90
3660;DHT22;1846;51.482;7.224;2023-04-20T20:21:49;9.10;1.00
3660;DHT22;1846;51.482;7.224;2023-04-20T20:24:16;9.10;1.00
3660;DHT22;1846;51.482;7.224;2023-04-20T20:26:43;9.10;10.50
3660;DHT22;1846;51.482;7.224;2023-04-20T20:29:10;9.20;99.90
3660;DHT22;1846;51.482;7.224;2023-04-20T20:31:37;9.10;99.90
3660;DHT22;1846;51.482;7.224;2023-04-20T20:34:04;9.20;99.90
3660;DHT22;1846;51.482;7.224;2023-04-20T20:36:30;9.00;1.00
3660;DHT22;1846;51.482;7.224;2023-04-20T20:38:59;9.00;99.90
3660;DHT22;1846;51.482;7.224;2023-04-20T20:41:26;9.00;1.00
3660;DHT22;1846;51.482;7.224;2023-04-20T20:43:54;8.90;1.00
3660;DHT22;1846;51.482;7.224;2023-04-20T20:46:22;8.90;17.30
3660;DHT22;1846;51.482;7.224;2023-04-20T20:48:49;8.90;1.30
3660;DHT22;1846;51.482;7.224;2023-04-20T20:51:16;8.80;1.00
3660;DHT22;1846;51.482;7.224;2023-04-20T20:53:42;8.80;11.10
3660;DHT22;1846;51.482;7.224;2023-04-20T20:56:12;8.80;1.00
3660;DHT22;1846;51.482;7.224;2023-04-20T20:58:38;8.70;23.60
3660;DHT22;1846;51.482;7.224;2023-04-20T21:01:05;8.70;99.90
3660;DHT22;1846;51.482;7.224;2023-04-20T21:03:32;8.70;99.90
3660;DHT22;1846;51.482;7.224;2023-04-20T21:05:59;8.60;99.90